createdAt,value
2023-03-06T00:00:00.636Z,6.89
2023-03-06T00:02:28.588Z,6.89
2023-03-06T00:04:55.214Z,6.88
2023-03-06T00:07:22.574Z,6.84
2023-03-06T00:09:49.675Z,6.91
2023-03-06T00:12:16.417Z,6.99
2023-03-06T00:14:44.830Z,7.02
2023-03-06T00:17:11.410Z,6.90
2023-03-06T00:19:40.441Z,6.92
2023-03-06T00:22:07.661Z,6.82
2023-03-06T00:24:34.498Z,6.89
2023-03-06T00:27:01.116Z,6.96
2023-03-06T00:29:27.720Z,7.00
2023-03-06T00:31:54.332Z,6.88
2023-03-06T00:34:21.249Z,6.83
2023-03-06T00:36:49.960Z,6.76
2023-03-06T00:39:19.420Z,6.84
2023-03-06T00:41:48.926Z,6.77
2023-03-06T00:44:15.510Z,6.88
2023-03-06T00:46:42.078Z,6.91
2023-03-06T00:49:08.899Z,6.68
2023-03-06T00:51:36.131Z,6.74
2023-03-06T00:54:05.676Z,6.69
2023-03-06T00:56:32.623Z,6.68
2023-03-06T00:59:00.307Z,6.80
2023-03-06T01:01:27.191Z,6.73
2023-03-06T01:03:56.608Z,6.64
2023-03-06T01:06:23.710Z,6.68
2023-03-06T01:08:50.930Z,6.74
2023-03-06T01:11:19.659Z,6.76
2023-03-06T01:13:48.282Z,6.66
2023-03-06T01:16:16.800Z,6.42
2023-03-06T01:18:46.603Z,6.72
2023-03-06T01:21:14.123Z,6.77
2023-03-06T01:23:41.765Z,6.77
2023-03-06T01:26:08.563Z,6.74
2023-03-06T01:28:38.036Z,6.77
2023-03-06T01:31:05.710Z,6.72
2023-03-06T01:33:33.173Z,6.66
2023-03-06T01:36:00.087Z,6.61
2023-03-06T01:38:27.229Z,6.52
2023-03-06T01:40:53.915Z,6.26
2023-03-06T01:43:27.570Z,6.38
2023-03-06T01:46:28.836Z,6.36
2023-03-06T01:49:00.471Z,6.31
2023-03-06T01:51:31.987Z,6.22
2023-03-06T01:54:03.452Z,6.29
2023-03-06T01:56:30.449Z,6.21
2023-03-06T01:58:58.415Z,6.15
2023-03-06T02:01:26.726Z,6.18
2023-03-06T02:03:54.626Z,6.04
2023-03-06T02:06:21.219Z,6.19
2023-03-06T02:08:49.498Z,6.23
2023-03-06T02:11:19.112Z,6.16
2023-03-06T02:13:46.695Z,6.30
2023-03-06T02:16:14.820Z,6.28
2023-03-06T02:18:44.866Z,6.30
2023-03-06T02:21:15.804Z,6.32
2023-03-06T02:23:54.317Z,6.39
2023-03-06T02:26:23.804Z,6.34
2023-03-06T02:28:50.362Z,6.40
2023-03-06T02:31:22.407Z,6.42
2023-03-06T02:34:01.385Z,6.31
2023-03-06T02:36:29.681Z,6.22
2023-03-06T02:38:57.129Z,6.20
2023-03-06T02:41:25.686Z,6.28
2023-03-06T02:43:53.092Z,6.45
2023-03-06T02:46:19.705Z,6.52
2023-03-06T02:48:46.573Z,6.57
2023-03-06T02:51:13.242Z,6.56
2023-03-06T02:53:39.844Z,6.45
2023-03-06T02:56:07.184Z,6.55
2023-03-06T02:58:35.538Z,6.60
2023-03-06T03:01:02.163Z,6.54
2023-03-06T03:03:28.970Z,6.35
2023-03-06T03:05:55.862Z,6.30
2023-03-06T03:08:22.897Z,6.14
2023-03-06T03:10:49.519Z,6.26
2023-03-06T03:13:16.189Z,6.35
2023-03-06T03:15:44.414Z,6.12
2023-03-06T03:18:11.258Z,6.20
2023-03-06T03:20:42.064Z,6.32
2023-03-06T03:23:08.644Z,6.17
2023-03-06T03:25:35.393Z,6.18
2023-03-06T03:28:02.029Z,6.19
2023-03-06T03:30:28.602Z,6.02
2023-03-06T03:32:56.507Z,6.21
2023-03-06T03:35:23.289Z,6.10
2023-03-06T03:37:50.305Z,6.37
2023-03-06T03:40:17.191Z,6.35
2023-03-06T03:42:43.946Z,6.37
2023-03-06T03:45:11.552Z,6.39
2023-03-06T03:47:38.372Z,6.49
2023-03-06T03:50:07.452Z,6.42
2023-03-06T03:52:34.056Z,6.42
2023-03-06T03:55:00.929Z,6.31
2023-03-06T03:57:27.542Z,6.46
2023-03-06T03:59:54.140Z,6.41
2023-03-06T04:02:20.888Z,6.34
2023-03-06T04:04:47.562Z,6.35
2023-03-06T04:07:15.678Z,6.46
2023-03-06T04:09:42.273Z,6.42
2023-03-06T04:12:09.336Z,6.45
2023-03-06T04:14:35.939Z,6.47
2023-03-06T04:17:02.677Z,6.48
2023-03-06T04:19:29.242Z,6.39
2023-03-06T04:21:55.816Z,6.38
2023-03-06T04:24:23.772Z,6.48
2023-03-06T04:26:50.357Z,6.49
2023-03-06T04:29:16.929Z,6.54
2023-03-06T04:31:43.540Z,6.35
2023-03-06T04:34:10.248Z,6.30
2023-03-06T04:36:37.171Z,6.29
2023-03-06T04:39:04.316Z,6.22
2023-03-06T04:41:32.509Z,6.26
2023-03-06T04:43:59.238Z,6.38
2023-03-06T04:46:25.975Z,6.32
2023-03-06T04:48:52.622Z,6.30
2023-03-06T04:51:19.398Z,6.42
2023-03-06T04:53:46.065Z,6.45
2023-03-06T04:56:13.016Z,6.22
2023-03-06T04:58:42.583Z,6.40
2023-03-06T05:01:09.686Z,6.42
2023-03-06T05:03:36.345Z,6.45
2023-03-06T05:06:02.963Z,6.26
2023-03-06T05:08:29.886Z,6.29
2023-03-06T05:10:58.167Z,6.47
2023-03-06T05:13:25.660Z,6.46
2023-03-06T05:15:54.068Z,6.22
2023-03-06T05:18:20.992Z,6.29
2023-03-06T05:20:47.561Z,6.21
2023-03-06T05:23:14.372Z,6.22
2023-03-06T05:25:40.964Z,6.12
2023-03-06T05:28:08.212Z,6.27
2023-03-06T05:30:35.668Z,6.27
2023-03-06T05:33:03.777Z,6.29
2023-03-06T05:35:30.498Z,6.35
2023-03-06T05:37:57.081Z,6.34
2023-03-06T05:40:23.767Z,6.31
2023-03-06T05:42:50.494Z,6.46
2023-03-06T05:45:17.298Z,6.32
2023-03-06T05:47:44.153Z,6.26
2023-03-06T05:50:12.988Z,6.42
2023-03-06T05:52:39.714Z,6.37
2023-03-06T05:55:07.724Z,6.40
2023-03-06T05:57:45.945Z,6.30
2023-03-06T06:00:14.311Z,6.36
2023-03-06T06:02:41.494Z,6.17
2023-03-06T06:05:10.257Z,6.13
2023-03-06T06:07:39.502Z,6.05
2023-03-06T06:10:07.475Z,5.99
2023-03-06T06:15:17.742Z,5.95
2023-03-06T06:17:44.341Z,6.06
2023-03-06T06:20:12.024Z,6.06
2023-03-06T06:22:39.986Z,6.03
2023-03-06T06:25:07.912Z,6.06
2023-03-06T06:27:34.502Z,6.10
2023-03-06T06:30:01.106Z,6.21
2023-03-06T06:32:27.666Z,6.25
2023-03-06T06:34:54.782Z,6.28
2023-03-06T06:37:21.629Z,6.39
2023-03-06T06:39:49.539Z,6.53
2023-03-06T06:42:31.009Z,6.45
2023-03-06T06:44:59.733Z,6.31
2023-03-06T06:47:26.466Z,6.49
2023-03-06T06:49:54.957Z,6.62
2023-03-06T06:52:22.218Z,6.68
2023-03-06T06:54:50.148Z,6.63
2023-03-06T06:57:17.383Z,6.68
2023-03-06T06:59:44.000Z,6.68
2023-03-06T07:02:14.614Z,6.75
2023-03-06T07:04:56.101Z,6.54
2023-03-06T07:07:27.548Z,6.57
2023-03-06T07:09:58.995Z,6.54
2023-03-06T07:12:25.759Z,6.55
2023-03-06T07:14:52.307Z,6.62
2023-03-06T07:17:18.944Z,6.77
2023-03-06T07:19:45.711Z,6.73
2023-03-06T07:22:12.552Z,6.72
2023-03-06T07:24:39.125Z,6.92
2023-03-06T07:27:07.190Z,6.79
2023-03-06T07:29:33.908Z,6.87
2023-03-06T07:32:00.629Z,6.92
2023-03-06T07:34:27.250Z,6.95
2023-03-06T07:36:53.994Z,6.96
2023-03-06T07:39:20.599Z,6.99
2023-03-06T07:41:50.091Z,6.98
2023-03-06T07:44:18.121Z,6.88
2023-03-06T07:46:44.720Z,7.02
2023-03-06T07:49:11.333Z,6.99
2023-03-06T07:51:37.903Z,7.08
2023-03-06T07:54:04.528Z,7.09
2023-03-06T07:56:30.951Z,7.26
2023-03-06T07:58:57.677Z,7.36
2023-03-06T08:01:26.012Z,7.41
2023-03-06T08:03:53.042Z,7.31
2023-03-06T08:06:23.058Z,7.24
2023-03-06T08:08:50.673Z,7.41
2023-03-06T08:11:19.448Z,7.42
2023-03-06T08:13:46.509Z,7.40
2023-03-06T08:16:13.121Z,7.38
2023-03-06T08:18:41.453Z,7.36
2023-03-06T08:21:09.917Z,7.47
2023-03-06T08:23:37.107Z,7.66
2023-03-06T08:26:05.593Z,7.91
2023-03-06T08:28:32.676Z,8.17
2023-03-06T08:31:06.914Z,8.47
2023-03-06T08:33:33.582Z,8.44
2023-03-06T08:36:02.464Z,8.71
2023-03-06T08:38:29.211Z,8.93
2023-03-06T08:40:55.947Z,8.98
2023-03-06T08:43:22.606Z,9.16
2023-03-06T08:45:52.059Z,9.45
2023-03-06T08:48:18.716Z,9.47
2023-03-06T08:50:45.335Z,9.26
2023-03-06T08:53:13.589Z,9.27
2023-03-06T08:55:40.254Z,9.15
2023-03-06T08:58:06.976Z,9.30
2023-03-06T09:00:34.046Z,9.04
2023-03-06T09:03:00.849Z,9.18
2023-03-06T09:05:27.432Z,9.19
2023-03-06T09:07:54.129Z,9.08
2023-03-06T09:10:24.596Z,9.23
2023-03-06T09:12:54.423Z,9.09
2023-03-06T09:15:22.865Z,8.87
2023-03-06T09:17:49.632Z,8.76
2023-03-06T09:20:16.976Z,8.61
2023-03-06T09:22:43.751Z,8.67
2023-03-06T09:25:10.559Z,8.62
2023-03-06T09:27:38.613Z,8.45
2023-03-06T09:30:07.103Z,8.19
2023-03-06T09:32:33.687Z,7.90
2023-03-06T09:35:00.862Z,7.86
2023-03-06T09:37:27.454Z,7.36
2023-03-06T09:39:54.025Z,7.43
2023-03-06T09:42:22.068Z,7.72
2023-03-06T09:44:54.114Z,8.01
2023-03-06T09:47:40.741Z,8.38
2023-03-06T09:50:34.631Z,8.85
2023-03-06T09:53:31.070Z,9.30
2023-03-06T09:56:02.425Z,9.27
2023-03-06T09:58:34.214Z,8.87
2023-03-06T10:01:06.613Z,8.79
2023-03-06T10:03:39.522Z,8.77
2023-03-06T10:06:12.935Z,8.72
2023-03-06T10:08:49.005Z,8.60
2023-03-06T10:11:22.349Z,8.43
2023-03-06T10:13:53.904Z,8.28
2023-03-06T10:16:27.589Z,7.78
2023-03-06T10:18:59.487Z,7.92
2023-03-06T10:21:39.014Z,8.14
2023-03-06T10:24:20.124Z,8.12
2023-03-06T10:26:52.141Z,8.50
2023-03-06T10:29:39.215Z,9.07
2023-03-06T10:32:14.172Z,9.26
2023-03-06T10:34:42.410Z,9.77
2023-03-06T10:37:18.457Z,10.14
2023-03-06T10:39:45.182Z,10.40
2023-03-06T10:42:11.906Z,10.61
2023-03-06T10:44:39.122Z,10.95
2023-03-06T10:47:35.672Z,10.78
2023-03-06T10:50:06.665Z,11.29
2023-03-06T10:52:35.616Z,11.39
2023-03-06T10:55:33.055Z,10.94
2023-03-06T10:58:17.348Z,11.10
2023-03-06T11:00:44.043Z,11.16
2023-03-06T11:03:29.882Z,10.47
2023-03-06T11:06:07.603Z,10.42
2023-03-06T11:08:40.060Z,10.80
2023-03-06T11:11:10.841Z,10.64
2023-03-06T11:13:46.035Z,9.96
2023-03-06T11:16:29.183Z,9.26
2023-03-06T11:19:20.942Z,8.82
2023-03-06T11:22:07.297Z,9.06
2023-03-06T11:24:52.116Z,8.83
2023-03-06T11:27:25.433Z,8.91
2023-03-06T11:30:01.845Z,9.37
2023-03-06T11:32:40.496Z,8.58
2023-03-06T11:35:23.100Z,8.63
2023-03-06T11:38:05.307Z,8.60
2023-03-06T11:40:56.615Z,8.72
2023-03-06T11:43:38.316Z,9.19
2023-03-06T11:46:24.439Z,9.50
2023-03-06T11:48:58.551Z,9.57
2023-03-06T11:51:36.571Z,9.32
2023-03-06T11:58:19.673Z,9.60
2023-03-06T12:01:45.457Z,9.82
2023-03-06T12:08:47.543Z,9.75
2023-03-06T12:18:48.672Z,10.45
2023-03-06T12:21:49.318Z,10.07
2023-03-06T12:24:40.047Z,10.35
2023-03-06T12:27:15.369Z,10.34
2023-03-06T12:29:57.972Z,10.36
2023-03-06T12:32:39.892Z,10.87
2023-03-06T12:35:23.762Z,10.84
2023-03-06T12:38:07.422Z,11.44
2023-03-06T13:14:00.437Z,11.29
2023-03-06T13:16:43.982Z,11.47
2023-03-06T13:19:20.359Z,11.43
2023-03-06T13:23:06.709Z,10.90
2023-03-06T13:26:16.807Z,11.42
2023-03-06T13:28:46.470Z,11.73
2023-03-06T13:31:26.474Z,11.57
2023-03-06T13:34:05.044Z,11.66
2023-03-06T13:36:34.746Z,11.66
2023-03-06T13:39:05.532Z,11.81
2023-03-06T13:42:04.474Z,12.09
2023-03-06T13:44:56.434Z,11.72
2023-03-06T13:48:41.582Z,11.53
2023-03-06T13:50:57.736Z,11.00
2023-03-06T13:54:09.948Z,11.03
2023-03-06T14:00:55.598Z,11.29
2023-03-06T14:04:05.889Z,11.60
2023-03-06T14:06:53.085Z,11.53
2023-03-06T14:09:26.780Z,11.59
2023-03-06T14:11:57.363Z,11.42
2023-03-06T14:14:32.323Z,11.34
2023-03-06T14:17:05.767Z,11.10
2023-03-06T14:19:37.911Z,11.41
2023-03-06T14:22:27.906Z,11.15
2023-03-06T14:24:59.376Z,11.39
2023-03-06T14:27:41.559Z,11.15
2023-03-06T14:30:12.513Z,11.39
2023-03-06T14:32:40.405Z,11.30
2023-03-06T14:35:20.744Z,11.01
2023-03-06T14:37:49.178Z,10.88
2023-03-06T14:40:18.942Z,10.78
2023-03-06T14:42:45.574Z,10.13
2023-03-06T14:45:16.654Z,10.47
2023-03-06T14:47:44.128Z,10.52
2023-03-06T14:50:24.021Z,9.93
2023-03-06T14:52:54.184Z,10.33
2023-03-06T14:55:59.777Z,10.25
2023-03-06T14:58:31.431Z,10.14
2023-03-06T15:03:58.241Z,10.26
2023-03-06T15:42:06.083Z,10.04
2023-03-06T17:02:41.729Z,7.96
2023-03-06T18:14:39.095Z,7.57
2023-03-06T18:17:05.918Z,7.52
2023-03-06T18:19:35.033Z,7.60
2023-03-06T18:22:01.627Z,7.54
2023-03-06T18:24:37.308Z,7.51
2023-03-06T18:27:04.065Z,7.61
2023-03-06T18:29:30.743Z,7.85
2023-03-06T18:31:58.903Z,7.67
2023-03-06T18:34:28.170Z,7.41
2023-03-06T18:36:54.910Z,7.57
2023-03-06T18:39:21.626Z,7.66
2023-03-06T18:41:50.141Z,7.57
2023-03-06T18:44:18.188Z,7.60
2023-03-06T18:46:45.256Z,7.45
2023-03-06T18:49:14.048Z,7.66
2023-03-06T18:51:41.330Z,7.56
2023-03-06T18:54:08.445Z,7.56
2023-03-06T18:56:35.093Z,7.57
2023-03-06T18:59:02.640Z,7.71
2023-03-06T19:01:29.452Z,7.38
2023-03-06T19:03:56.152Z,7.45
2023-03-06T19:06:24.584Z,7.49
2023-03-06T19:08:52.070Z,7.49
2023-03-06T19:11:18.632Z,7.43
2023-03-06T19:13:45.406Z,7.52
2023-03-06T19:16:17.326Z,7.10
2023-03-06T19:18:47.358Z,7.39
2023-03-06T19:21:19.531Z,7.50
2023-03-06T19:23:47.640Z,7.32
2023-03-06T19:26:15.010Z,7.37
2023-03-06T19:28:42.746Z,7.19
2023-03-06T19:31:29.606Z,7.10
2023-03-06T19:35:27.477Z,7.08
2023-03-06T19:57:33.428Z,6.91
2023-03-06T20:00:00.117Z,6.99
2023-03-06T20:02:26.795Z,6.75
2023-03-06T20:04:53.737Z,7.16
2023-03-06T20:07:21.915Z,6.82
2023-03-06T20:09:48.597Z,6.64
2023-03-06T20:12:15.894Z,6.71
2023-03-06T20:14:42.717Z,6.96
2023-03-06T20:17:09.278Z,6.91
2023-03-06T20:19:36.760Z,6.63
2023-03-06T20:22:03.810Z,6.84
2023-03-06T20:24:31.731Z,6.89
2023-03-06T20:26:58.487Z,6.65
2023-03-06T20:29:26.662Z,6.76
2023-03-06T20:31:56.213Z,6.60
2023-03-06T20:34:23.835Z,6.39
2023-03-06T20:36:50.648Z,6.26
2023-03-06T20:39:22.085Z,6.47
2023-03-06T20:41:50.192Z,6.88
2023-03-06T20:44:19.528Z,6.82
2023-03-06T20:46:46.367Z,6.71
2023-03-06T20:49:13.417Z,6.43
2023-03-06T20:51:41.113Z,6.54
2023-03-06T20:54:09.773Z,6.69
2023-03-06T20:56:37.374Z,6.66
2023-03-06T20:59:05.975Z,6.48
2023-03-06T21:01:34.883Z,6.44
2023-03-06T21:04:03.021Z,6.62
2023-03-06T21:06:30.523Z,6.44
2023-03-06T21:08:58.444Z,6.44
2023-03-06T21:11:25.630Z,6.75
2023-03-06T21:13:55.436Z,7.05
2023-03-06T21:16:25.586Z,6.83
2023-03-06T21:18:54.348Z,6.86
2023-03-06T21:21:23.207Z,6.74
2023-03-06T21:23:50.619Z,6.71
2023-03-06T21:26:19.313Z,6.88
2023-03-06T21:28:46.547Z,6.52
2023-03-06T21:31:15.655Z,6.63
2023-03-06T21:33:44.715Z,6.66
2023-03-06T21:36:14.659Z,6.85
2023-03-06T21:38:41.577Z,6.70
2023-03-06T21:41:14.474Z,6.41
2023-03-06T21:43:41.714Z,6.28
2023-03-06T21:46:08.766Z,6.32
2023-03-06T21:48:35.842Z,6.09
2023-03-06T21:51:14.548Z,6.03
2023-03-06T21:53:42.195Z,5.86
2023-03-06T21:56:09.398Z,6.10
2023-03-06T21:58:38.957Z,6.19
2023-03-06T22:01:08.995Z,5.93
2023-03-06T22:03:35.611Z,6.07
2023-03-06T22:06:10.860Z,5.95
2023-03-06T22:08:38.844Z,5.99
2023-03-06T22:11:06.996Z,5.98
2023-03-06T22:13:35.935Z,6.11
2023-03-06T22:16:02.943Z,6.07
2023-03-06T22:18:29.543Z,6.28
2023-03-06T22:20:56.245Z,6.15
2023-03-06T22:23:23.032Z,6.13
2023-03-06T22:25:50.962Z,6.23
2023-03-06T22:28:18.580Z,6.32
2023-03-06T22:30:45.314Z,6.15
2023-03-06T22:33:12.032Z,6.30
2023-03-06T22:35:38.682Z,6.27
2023-03-06T22:38:05.349Z,6.18
2023-03-06T22:40:33.134Z,6.27
2023-03-06T22:43:01.198Z,6.24
2023-03-06T22:45:28.326Z,6.25
2023-03-06T22:48:02.349Z,6.37
2023-03-06T22:50:36.952Z,6.26
2023-03-06T22:53:03.741Z,6.44
2023-03-06T22:55:30.996Z,6.50
2023-03-06T22:57:57.590Z,6.41
2023-03-06T23:00:25.533Z,6.54
2023-03-06T23:02:52.176Z,6.26
2023-03-06T23:05:21.710Z,6.18
2023-03-06T23:07:48.444Z,6.05
2023-03-06T23:10:17.418Z,6.15
2023-03-06T23:12:44.073Z,6.05
2023-03-06T23:15:13.360Z,6.25
2023-03-06T23:17:41.938Z,6.18
2023-03-06T23:20:10.193Z,6.20
2023-03-06T23:22:36.841Z,5.99
2023-03-06T23:25:03.568Z,6.13
2023-03-06T23:27:30.233Z,6.45
2023-03-06T23:29:56.819Z,6.48
2023-03-06T23:32:23.722Z,6.45
2023-03-06T23:34:54.286Z,6.42
2023-03-06T23:37:20.997Z,6.18
2023-03-06T23:39:47.646Z,6.38
2023-03-06T23:42:14.443Z,6.56
2023-03-06T23:44:41.076Z,6.31
2023-03-06T23:47:07.700Z,6.32
2023-03-06T23:49:34.584Z,6.05
2023-03-06T23:52:03.177Z,6.24
2023-03-06T23:54:31.411Z,6.13
2023-03-06T23:56:58.187Z,6.49
2023-03-06T23:59:24.795Z,6.24
